Time;durP1;ratioP1;P1;durP2;ratioP2;P2;SDS_P1;SDS_P2;PMS_P1;PMS_P2;Temp;Humidity;BMP_temperature;BMP_pressure;BME280_temperature;BME280_humidity;BME280_pressure;Samples;Min_cycle;Max_cycle;Signal;HPM_P1;HPM_P2
2022/09/12 00:05:51;;;;;;;2.25;1.50;;;13.70;99.90;;;;;;20941036;28;20143;-79
2022/09/12 00:15:52;;;;;;;2.87;1.63;;;13.50;99.90;;;;;;20939384;28;20037;-79
2022/09/12 00:25:53;;;;;;;3.57;1.57;;;13.30;99.90;;;;;;20926287;28;20449;-79
2022/09/12 00:35:54;;;;;;;2.63;1.60;;;13.40;99.90;;;;;;20932726;28;20487;-80
2022/09/12 00:45:57;;;;;;;3.03;1.50;;;13.30;99.90;;;;;;20937247;28;20068;-79
2022/09/12 00:55:58;;;;;;;3.92;1.67;;;13.20;99.90;;;;;;20935798;28;20064;-79
2022/09/12 01:06:22;;;;;;;5.32;1.90;;;13.20;99.90;;;;;;20939949;28;20504;-80
2022/09/12 01:16:24;;;;;;;5.97;1.80;;;13.10;99.90;;;;;;20937538;28;20053;-79
2022/09/12 01:26:50;;;;;;;7.10;1.80;;;13.00;99.90;;;;;;20920518;28;20041;-78
2022/09/12 01:36:54;;;;;;;4.18;1.80;;;12.80;99.90;;;;;;20926567;28;20360;-79
2022/09/12 01:47:23;;;;;;;10.02;2.30;;;12.70;99.90;;;;;;20924004;28;20033;-78
2022/09/12 01:57:35;;;;;;;6.32;2.30;;;12.60;99.90;;;;;;20906109;28;20043;-78
2022/09/12 02:08:01;;;;;;;3.35;2.17;;;12.40;99.90;;;;;;20913555;28;20056;-79
2022/09/12 02:18:05;;;;;;;5.68;2.20;;;12.30;99.90;;;;;;20932887;28;20131;-79
2022/09/12 02:28:10;;;;;;;3.20;2.08;;;12.30;99.90;;;;;;20932313;28;20037;-79
2022/09/12 02:38:34;;;;;;;2.35;1.50;;;12.30;99.90;;;;;;20929206;28;20036;-78
2022/09/12 02:48:39;;;;;;;3.83;2.33;;;12.20;99.90;;;;;;20927360;28;20128;-79
2022/09/12 02:58:40;;;;;;;6.90;2.20;;;12.20;99.90;;;;;;20919089;28;20064;-79
2022/09/12 03:09:00;;;;;;;2.27;1.67;;;12.20;99.90;;;;;;20929473;28;20041;-80
2022/09/12 03:19:35;;;;;;;2.03;1.40;;;12.10;99.90;;;;;;20846521;22;20054;-80
2022/09/12 03:29:38;;;;;;;3.03;1.48;;;12.00;99.90;;;;;;20754039;28;20041;-79
2022/09/12 03:39:39;;;;;;;1.98;1.63;;;11.90;99.90;;;;;;20756080;28;20049;-78
2022/09/12 03:49:39;;;;;;;3.17;1.80;;;11.80;99.90;;;;;;20756172;28;20048;-80
2022/09/12 03:59:40;;;;;;;2.10;1.37;;;11.70;99.90;;;;;;20758556;28;20029;-80
2022/09/12 04:09:41;;;;;;;1.43;1.30;;;11.60;99.90;;;;;;20819839;28;20556;-79
2022/09/12 04:19:42;;;;;;;1.43;1.30;;;11.60;99.90;;;;;;20766110;28;20038;-79
2022/09/12 04:29:43;;;;;;;4.03;1.50;;;11.50;99.90;;;;;;20771176;28;20045;-78
2022/09/12 04:39:44;;;;;;;2.63;1.37;;;11.50;99.90;;;;;;20773636;28;20045;-79
2022/09/12 04:49:44;;;;;;;4.37;1.90;;;11.50;99.90;;;;;;20771327;28;20030;-80
2022/09/12 04:59:45;;;;;;;4.47;2.00;;;11.30;99.90;;;;;;20768571;28;20046;-79
2022/09/12 05:09:46;;;;;;;2.43;1.87;;;11.20;99.90;;;;;;20770771;28;20096;-80
2022/09/12 05:19:47;;;;;;;2.23;1.50;;;11.20;99.90;;;;;;20767633;28;20494;-79
2022/09/12 05:29:48;;;;;;;5.33;2.07;;;11.20;99.90;;;;;;20765340;28;20036;-80
2022/09/12 05:39:49;;;;;;;6.10;2.40;;;11.40;99.90;;;;;;20793562;28;20042;-79
2022/09/12 05:49:51;;;;;;;4.23;2.80;;;11.60;99.90;;;;;;20763791;28;20129;-81
2022/09/12 05:59:52;;;;;;;5.38;2.78;;;12.00;99.90;;;;;;20764313;28;20513;-79
2022/09/12 06:09:52;;;;;;;5.10;2.67;;;12.10;99.90;;;;;;20765118;28;20726;-80
2022/09/12 06:19:54;;;;;;;5.00;2.27;;;12.30;99.90;;;;;;20763751;28;20037;-79
2022/09/12 06:29:55;;;;;;;2.17;1.53;;;12.50;99.90;;;;;;20763355;28;20030;-81
2022/09/12 06:39:56;;;;;;;6.97;2.05;;;13.40;99.90;;;;;;20763968;28;20048;-80
2022/09/12 06:49:57;;;;;;;6.57;2.27;;;14.40;99.90;;;;;;20745858;28;20063;-80
2022/09/12 06:59:57;;;;;;;3.60;1.97;;;14.80;99.90;;;;;;20743373;28;20037;-80
2022/09/12 07:09:59;;;;;;;5.63;2.30;;;15.70;99.90;;;;;;20743327;28;20403;-80
2022/09/12 07:20:00;;;;;;;3.80;2.17;;;15.80;99.90;;;;;;20760155;28;20069;-81
2022/09/12 07:30:00;;;;;;;7.00;2.10;;;16.70;99.90;;;;;;20761646;28;20092;-81
2022/09/12 07:40:01;;;;;;;3.90;1.93;;;16.90;99.90;;;;;;20760226;28;20045;-81
2022/09/12 07:50:03;;;;;;;1.77;1.50;;;17.40;99.90;;;;;;20760197;28;20108;-81
2022/09/12 08:00:06;;;;;;;3.07;1.93;;;18.10;99.90;;;;;;20757788;28;20546;-81
2022/09/12 08:10:13;;;;;;;4.10;1.98;;;18.40;99.90;;;;;;20789088;28;20037;-80
2022/09/12 08:20:14;;;;;;;5.03;2.07;;;18.40;99.90;;;;;;20811173;28;20052;-82
2022/09/12 08:30:14;;;;;;;3.87;2.07;;;19.40;99.90;;;;;;20799506;28;20103;-80
2022/09/12 08:40:17;;;;;;;4.53;1.87;;;18.60;99.90;;;;;;20738576;28;20084;-78
2022/09/12 08:50:21;;;;;;;3.50;1.77;;;19.20;99.90;;;;;;20757110;28;20037;-81
2022/09/12 09:00:22;;;;;;;2.70;1.45;;;20.10;99.90;;;;;;20764381;28;20575;-81
2022/09/12 09:11:04;;;;;;;2.05;1.52;;;21.30;99.90;;;;;;20969096;22;20414;-76
2022/09/12 09:21:20;;;;;;;1.97;1.17;;;21.10;99.90;;;;;;20773146;28;20175;-77
2022/09/12 09:31:23;;;;;;;1.50;1.02;;;21.70;99.90;;;;;;20900734;28;20064;-77
2022/09/12 09:41:30;;;;;;;3.45;1.42;;;22.00;99.90;;;;;;20916820;28;20131;-77
2022/09/12 09:51:37;;;;;;;1.55;0.95;;;22.00;99.90;;;;;;20917362;28;20503;-77
2022/09/12 10:01:50;;;;;;;5.15;0.90;;;23.50;99.90;;;;;;20914422;28;20049;-77
2022/09/12 10:11:52;;;;;;;1.45;0.75;;;24.10;99.90;;;;;;20914602;28;20079;-76
2022/09/12 10:21:55;;;;;;;1.23;1.00;;;23.90;99.90;;;;;;20915902;28;20045;-76
2022/09/12 10:32:00;;;;;;;3.78;1.20;;;23.70;99.90;;;;;;20918918;28;20071;-76
2022/09/12 10:42:02;;;;;;;2.55;1.25;;;24.50;99.90;;;;;;20912493;28;20132;-76
2022/09/12 10:52:22;;;;;;;2.10;1.10;;;24.30;99.90;;;;;;20910855;28;20041;-77
2022/09/12 11:02:47;;;;;;;1.48;1.27;;;24.90;99.90;;;;;;20910678;28;20044;-76
2022/09/12 11:12:54;;;;;;;2.05;1.20;;;25.50;99.90;;;;;;20909492;28;20611;-77
2022/09/12 11:23:33;;;;;;;2.97;1.30;;;25.70;99.90;;;;;;20908121;28;20068;-76
2022/09/12 11:33:47;;;;;;;3.50;1.15;;;26.40;99.90;;;;;;20909205;28;20040;-76
2022/09/12 11:43:56;;;;;;;4.65;1.30;;;27.50;99.90;;;;;;20908523;28;20048;-76
2022/09/12 11:54:12;;;;;;;1.92;1.00;;;28.50;99.90;;;;;;20915628;28;20503;-76
2022/09/12 12:04:18;;;;;;;1.25;0.80;;;27.50;99.90;;;;;;20908131;28;20029;-77
2022/09/12 12:14:31;;;;;;;4.47;1.17;;;27.90;99.90;;;;;;20907549;28;20045;-75
2022/09/12 12:24:36;;;;;;;3.28;1.00;;;27.00;99.90;;;;;;20914196;28;20128;-76
2022/09/12 12:34:45;;;;;;;7.93;1.10;;;27.60;99.90;;;;;;20921871;28;20040;-76
2022/09/12 12:44:50;;;;;;;1.30;0.70;;;27.60;99.90;;;;;;20921188;28;20050;-75
2022/09/12 12:54:57;;;;;;;1.65;0.73;;;26.50;99.90;;;;;;20920840;28;20103;-76
2022/09/12 13:05:01;;;;;;;1.10;0.38;;;28.60;99.90;;;;;;20919492;28;20048;-76
2022/09/12 13:15:23;;;;;;;3.38;0.60;;;27.40;99.90;;;;;;20926025;28;20044;-76
2022/09/12 13:25:26;;;;;;;4.18;0.82;;;27.30;99.90;;;;;;20917661;28;20045;-76
2022/09/12 13:36:12;;;;;;;0.93;0.47;;;28.20;99.90;;;;;;20917219;28;20043;-76
2022/09/12 13:46:18;;;;;;;2.42;0.50;;;28.10;99.90;;;;;;20887337;28;20045;-76
2022/09/12 13:56:19;;;;;;;0.55;0.50;;;28.00;99.90;;;;;;20915065;28;20060;-76
2022/09/12 14:06:21;;;;;;;1.10;0.70;;;28.40;99.90;;;;;;20914334;28;20380;-77
2022/09/12 14:16:26;;;;;;;1.58;0.60;;;28.50;99.90;;;;;;20914015;28;20060;-75
2022/09/12 14:26:31;;;;;;;0.43;0.30;;;27.90;99.90;;;;;;20913264;28;20033;-75
2022/09/12 14:36:55;;;;;;;0.80;0.50;;;28.70;99.90;;;;;;20915032;28;20495;-75
2022/09/12 14:47:00;;;;;;;0.93;0.40;;;28.90;99.90;;;;;;20900736;28;20122;-75
2022/09/12 14:57:04;;;;;;;0.30;0.30;;;28.90;99.90;;;;;;20911621;28;20044;-75
2022/09/12 15:07:28;;;;;;;2.03;0.47;;;28.70;99.90;;;;;;20982596;22;20060;-80
2022/09/12 15:17:29;;;;;;;0.60;0.30;;;28.50;99.90;;;;;;21011389;28;20046;-80
2022/09/12 15:27:29;;;;;;;0.83;0.30;;;28.30;99.90;;;;;;21009031;28;20044;-80
2022/09/12 15:37:30;;;;;;;0.80;0.50;;;28.50;99.90;;;;;;21002538;28;20024;-79
2022/09/12 15:47:31;;;;;;;1.40;0.40;;;27.80;99.90;;;;;;20981735;28;20036;-81
2022/09/12 15:57:32;;;;;;;3.45;0.75;;;27.80;99.90;;;;;;21004081;28;20278;-82
2022/09/12 16:07:32;;;;;;;0.47;0.37;;;26.80;99.90;;;;;;21004466;28;20063;-82
2022/09/12 16:17:33;;;;;;;1.58;0.60;;;25.80;99.90;;;;;;21006937;28;20566;-81
2022/09/12 16:27:34;;;;;;;1.50;0.50;;;25.70;99.90;;;;;;21021374;28;20028;-79
2022/09/12 16:37:35;;;;;;;3.03;0.70;;;25.20;99.90;;;;;;21013938;28;20405;-80
2022/09/12 16:47:36;;;;;;;0.63;0.47;;;24.60;99.90;;;;;;20991682;28;20041;-80
2022/09/12 16:57:37;;;;;;;1.50;0.50;;;24.70;99.90;;;;;;21020665;28;20367;-79
2022/09/12 17:07:38;;;;;;;0.88;0.57;;;24.00;99.90;;;;;;21002428;28;20770;-80
2022/09/12 17:17:39;;;;;;;1.13;0.63;;;22.50;99.90;;;;;;20979331;28;20121;-78
2022/09/12 17:27:39;;;;;;;1.00;0.70;;;21.80;99.90;;;;;;20976443;28;20119;-79
2022/09/12 17:37:40;;;;;;;1.57;0.80;;;21.70;99.90;;;;;;20986844;28;20395;-79
2022/09/12 17:47:42;;;;;;;1.80;0.50;;;20.40;99.90;;;;;;20994502;28;20039;-79
2022/09/12 17:57:44;;;;;;;2.10;0.90;;;20.70;99.90;;;;;;20957998;28;20143;-80
2022/09/12 18:07:45;;;;;;;4.35;0.68;;;20.40;99.90;;;;;;20991489;28;20032;-79
2022/09/12 18:17:45;;;;;;;3.27;0.90;;;19.60;99.90;;;;;;20988899;28;20497;-79
2022/09/12 18:27:46;;;;;;;2.73;0.90;;;19.60;99.90;;;;;;20997046;28;20376;-77
2022/09/12 18:37:47;;;;;;;6.73;1.20;;;18.20;99.90;;;;;;20990552;28;20536;-76
2022/09/12 18:47:48;;;;;;;0.90;0.77;;;18.20;99.90;;;;;;20995272;28;20113;-76
2022/09/12 18:57:49;;;;;;;5.33;0.70;;;18.30;99.90;;;;;;20993295;28;20037;-78
2022/09/12 19:07:50;;;;;;;2.10;0.90;;;18.60;99.90;;;;;;20993713;28;20044;-78
2022/09/12 19:17:50;;;;;;;4.57;0.90;;;18.80;99.90;;;;;;20973353;28;20063;-78
2022/09/12 19:27:52;;;;;;;20.73;1.40;;;18.10;99.90;;;;;;20972864;28;20067;-78
2022/09/12 19:37:52;;;;;;;2.03;1.13;;;17.70;99.90;;;;;;20989486;28;20075;-80
2022/09/12 19:47:53;;;;;;;6.03;1.30;;;18.00;99.90;;;;;;20992138;28;20094;-78
2022/09/12 19:57:54;;;;;;;3.10;1.20;;;17.60;99.90;;;;;;20990617;28;20070;-78
2022/09/12 20:07:56;;;;;;;5.03;1.50;;;17.70;99.90;;;;;;20989691;28;20060;-78
2022/09/12 20:17:57;;;;;;;2.88;1.23;;;17.10;99.90;;;;;;20988221;28;20399;-77
2022/09/12 20:27:58;;;;;;;3.13;1.43;;;16.80;99.90;;;;;;20987454;28;20055;-77
2022/09/12 20:37:58;;;;;;;3.07;1.57;;;16.50;99.90;;;;;;20970926;28;20592;-78
2022/09/12 20:47:59;;;;;;;4.60;1.60;;;16.70;99.90;;;;;;20982301;28;20036;-78
2022/09/12 20:58:00;;;;;;;1.40;1.03;;;16.80;99.90;;;;;;21017311;28;20098;-77
2022/09/12 21:08:01;;;;;;;4.40;1.10;;;16.70;99.90;;;;;;21060458;22;20047;-74
2022/09/12 21:18:02;;;;;;;1.67;1.30;;;16.80;99.90;;;;;;21084329;28;20055;-77
2022/09/12 21:28:02;;;;;;;4.93;1.73;;;16.70;99.90;;;;;;21083708;28;20579;-76
2022/09/12 21:38:03;;;;;;;1.63;1.10;;;16.50;99.90;;;;;;21064655;28;20047;-76
2022/09/12 21:48:04;;;;;;;3.43;1.47;;;16.30;99.90;;;;;;21082189;28;20060;-76
2022/09/12 21:58:05;;;;;;;1.87;1.27;;;16.20;99.90;;;;;;21081199;28;20040;-76
2022/09/12 22:08:07;;;;;;;3.60;1.10;;;16.20;99.90;;;;;;21062044;28;20046;-76
2022/09/12 22:18:07;;;;;;;4.47;1.30;;;16.20;99.90;;;;;;21061756;28;20448;-76
2022/09/12 22:28:09;;;;;;;4.37;1.20;;;15.90;99.90;;;;;;21079186;28;20032;-76
2022/09/12 22:38:09;;;;;;;4.63;1.60;;;15.90;99.90;;;;;;21078228;28;20129;-76
2022/09/12 22:48:10;;;;;;;2.47;1.23;;;15.80;99.90;;;;;;21077566;28;20274;-76
2022/09/12 22:58:11;;;;;;;2.77;1.70;;;15.60;99.90;;;;;;21058492;28;20056;-76
2022/09/12 23:08:16;;;;;;;3.43;1.43;;;15.60;99.90;;;;;;21075359;28;20402;-77
2022/09/12 23:18:17;;;;;;;5.25;2.17;;;15.40;99.90;;;;;;21075231;28;20719;-76
2022/09/12 23:28:18;;;;;;;3.80;1.83;;;15.40;99.90;;;;;;21074726;28;20040;-77
2022/09/12 23:38:18;;;;;;;3.53;1.63;;;15.30;99.90;;;;;;21073089;28;20478;-77
2022/09/12 23:48:19;;;;;;;3.57;1.67;;;15.10;99.90;;;;;;20971949;28;20049;-76
2022/09/12 23:58:21;;;;;;;3.63;1.83;;;15.00;99.90;;;;;;20989646;28;20514;-77
